Time;durP1;ratioP1;P1;durP2;ratioP2;P2;SDS_P1;SDS_P2;PMS_P1;PMS_P2;Temp;Humidity;BMP_temperature;BMP_pressure;BME280_temperature;BME280_humidity;BME280_pressure;Samples;Min_cycle;Max_cycle;Signal;HPM_P1;HPM_P2
2023/01/08 00:01:41;;;;;;;;;;;;;;;10.26;65.41;98891.72;4350350;33;19970;-82
2023/01/08 00:04:06;;;;;;;;;;;;;;;10.59;64.27;98890.91;4350134;33;19989;-81
2023/01/08 00:06:31;;;;;;;;;;;;;;;10.62;64.18;98896.87;4350156;33;20009;-82
2023/01/08 00:08:57;;;;;;;;;;;;;;;10.55;64.34;98894.66;4350339;33;20007;-82
2023/01/08 00:11:22;;;;;;;;;;;;;;;10.61;64.29;98891.69;4350237;33;20018;-81
2023/01/08 00:13:47;;;;;;;;;;;;;;;10.63;64.33;98895.09;4350143;33;19998;-82
2023/01/08 00:16:14;;;;;;;;;;;;;;;10.69;64.08;98897.41;4349024;33;20331;-82
2023/01/08 00:18:39;;;;;;;;;;;;;;;10.67;64.08;98888.72;4350234;33;20334;-82
2023/01/08 00:21:04;;;;;;;;;;;;;;;10.73;63.81;98898.09;4350219;33;19994;-82
2023/01/08 00:23:30;;;;;;;;;;;;;;;10.61;64.03;98894.31;4348895;33;19981;-81
2023/01/08 00:25:55;;;;;;;;;;;;;;;10.55;64.22;98899.91;4350142;33;20010;-82
2023/01/08 00:28:20;;;;;;;;;;;;;;;10.59;63.99;98883.84;4336544;33;20005;-81
2023/01/08 00:30:46;;;;;;;;;;;;;;;10.62;64.06;98882.84;4350068;33;19963;-82
2023/01/08 00:33:11;;;;;;;;;;;;;;;10.64;64.08;98878.34;4350112;33;19967;-82
2023/01/08 00:35:37;;;;;;;;;;;;;;;10.70;63.97;98867.50;4348839;33;20006;-82
2023/01/08 00:38:02;;;;;;;;;;;;;;;10.74;63.64;98866.37;4349899;33;19966;-82
2023/01/08 00:40:27;;;;;;;;;;;;;;;10.75;63.73;98867.22;4336339;33;19998;-81
2023/01/08 00:42:53;;;;;;;;;;;;;;;10.69;63.83;98854.41;4349388;33;20007;-82
2023/01/08 00:45:18;;;;;;;;;;;;;;;10.72;63.68;98865.63;4350042;33;19990;-82
2023/01/08 00:47:43;;;;;;;;;;;;;;;10.63;63.79;98859.03;4350081;33;19982;-82
2023/01/08 00:50:08;;;;;;;;;;;;;;;10.71;63.53;98865.69;4349719;33;19971;-82
2023/01/08 00:52:34;;;;;;;;;;;;;;;10.59;64.03;98856.69;4350087;33;19999;-82
2023/01/08 00:54:59;;;;;;;;;;;;;;;10.68;63.73;98860.59;4349843;33;19993;-82
2023/01/08 00:57:24;;;;;;;;;;;;;;;10.71;63.69;98863.06;4349932;33;20011;-82
2023/01/08 00:59:49;;;;;;;;;;;;;;;10.48;64.20;98872.19;4348769;33;19988;-82
2023/01/08 01:02:15;;;;;;;;;;;;;;;10.55;63.83;98873.56;4349914;33;20047;-81
2023/01/08 01:04:40;;;;;;;;;;;;;;;10.65;63.59;98872.16;4348729;33;20031;-81
2023/01/08 01:07:05;;;;;;;;;;;;;;;10.66;63.47;98871.19;4349903;33;19995;-82
2023/01/08 01:09:31;;;;;;;;;;;;;;;10.70;63.47;98871.88;4349845;33;20327;-82
2023/01/08 01:11:56;;;;;;;;;;;;;;;10.75;63.42;98881.25;4349859;33;19979;-82
2023/01/08 01:14:21;;;;;;;;;;;;;;;10.73;63.37;98877.84;4349861;33;20300;-82
2023/01/08 01:16:47;;;;;;;;;;;;;;;10.79;62.99;98879.31;4349712;33;20006;-82
2023/01/08 01:19:13;;;;;;;;;;;;;;;10.78;63.19;98874.97;4349790;33;19975;-82
2023/01/08 01:21:38;;;;;;;;;;;;;;;10.81;63.05;98873.00;4348646;33;19994;-82
2023/01/08 01:24:04;;;;;;;;;;;;;;;10.82;63.01;98868.62;4349623;33;19975;-82
2023/01/08 01:26:29;;;;;;;;;;;;;;;10.81;62.93;98874.81;4344733;33;163858;-82
2023/01/08 01:28:55;;;;;;;;;;;;;;;10.87;62.80;98869.19;4348466;33;19985;-82
2023/01/08 01:31:21;;;;;;;;;;;;;;;10.89;62.71;98872.59;4348506;33;20018;-82
2023/01/08 01:33:46;;;;;;;;;;;;;;;10.90;62.71;98868.19;4348412;33;19983;-82
2023/01/08 01:36:12;;;;;;;;;;;;;;;10.88;62.74;98864.78;4349326;33;19997;-81
2023/01/08 01:38:37;;;;;;;;;;;;;;;10.88;62.70;98857.72;4349668;33;19974;-82
2023/01/08 01:41:02;;;;;;;;;;;;;;;10.91;62.60;98851.44;4349556;33;19993;-82
2023/01/08 01:43:41;;;;;;;;;;;;;;;10.91;62.58;98847.00;4348302;33;19991;-82
2023/01/08 01:46:26;;;;;;;;;;;;;;;10.89;62.47;98846.22;4348356;33;20046;-82
2023/01/08 01:48:52;;;;;;;;;;;;;;;10.93;62.16;98837.25;4349377;33;19970;-82
2023/01/08 01:51:18;;;;;;;;;;;;;;;10.87;62.46;98836.72;4348509;33;20022;-82
2023/01/08 01:53:43;;;;;;;;;;;;;;;10.89;62.36;98829.59;4347257;33;20002;-82
2023/01/08 01:56:09;;;;;;;;;;;;;;;10.85;62.18;98834.16;4348404;33;19986;-82
2023/01/08 01:58:34;;;;;;;;;;;;;;;10.92;61.97;98816.25;4335877;33;19974;-81
2023/01/08 02:01:01;;;;;;;;;;;;;;;10.90;62.15;98816.31;4349274;33;19991;-82
2023/01/08 02:03:29;;;;;;;;;;;;;;;10.80;62.22;98818.63;4347977;33;19998;-81
2023/01/08 02:06:13;;;;;;;;;;;;;;;10.56;62.86;98812.87;4349300;33;19998;-82
2023/01/08 02:08:41;;;;;;;;;;;;;;;10.70;62.44;98806.88;4349168;33;19979;-82
2023/01/08 02:11:10;;;;;;;;;;;;;;;10.72;62.24;98801.50;4348068;33;20029;-82
2023/01/08 02:13:36;;;;;;;;;;;;;;;10.71;62.42;98805.94;4349082;33;19997;-82
2023/01/08 02:16:31;;;;;;;;;;;;;;;10.71;62.43;98805.09;4347967;33;19990;-82
2023/01/08 02:18:57;;;;;;;;;;;;;;;10.74;62.36;98797.88;4345333;33;19984;-82
2023/01/08 02:21:28;;;;;;;;;;;;;;;10.77;61.85;98799.47;4348132;33;20307;-82
2023/01/08 02:24:04;;;;;;;;;;;;;;;10.70;61.95;98795.47;4335667;33;19990;-82
2023/01/08 02:26:35;;;;;;;;;;;;;;;10.70;61.90;98795.47;4348151;33;19990;-81
2023/01/08 02:29:04;;;;;;;;;;;;;;;10.69;61.97;98799.91;4347992;33;19990;-82
2023/01/08 02:31:29;;;;;;;;;;;;;;;10.63;62.13;98798.47;4348788;33;19982;-82
2023/01/08 02:33:54;;;;;;;;;;;;;;;10.67;61.92;98796.50;4347683;33;19976;-82
2023/01/08 02:36:22;;;;;;;;;;;;;;;10.60;62.19;98789.87;4347464;33;20002;-82
2023/01/08 02:39:06;;;;;;;;;;;;;;;10.67;62.09;98790.41;4348742;33;20022;-82
2023/01/08 02:41:35;;;;;;;;;;;;;;;10.62;62.18;98788.87;4349059;33;20021;-82
2023/01/08 02:44:00;;;;;;;;;;;;;;;10.70;62.11;98791.09;4347637;33;19975;-82
2023/01/08 02:46:26;;;;;;;;;;;;;;;10.71;62.05;98789.28;4348799;33;19992;-82
2023/01/08 02:48:55;;;;;;;;;;;;;;;10.73;61.97;98787.41;4347508;33;19975;-82
2023/01/08 02:51:28;;;;;;;;;;;;;;;10.73;61.76;98782.16;4347382;33;20492;-82
2023/01/08 02:53:56;;;;;;;;;;;;;;;10.71;61.82;98789.28;4347405;33;19982;-82
2023/01/08 02:56:22;;;;;;;;;;;;;;;10.71;61.74;98776.97;4348403;33;20354;-82
2023/01/08 02:58:48;;;;;;;;;;;;;;;10.67;61.90;98779.84;4347572;33;19975;-82
2023/01/08 03:01:15;;;;;;;;;;;;;;;10.66;61.86;98783.41;4348677;33;19983;-81
2023/01/08 03:03:41;;;;;;;;;;;;;;;10.67;61.78;98791.25;4347432;33;19974;-82
2023/01/08 03:06:07;;;;;;;;;;;;;;;10.68;61.88;98778.91;4349464;33;20049;-82
2023/01/08 03:08:32;;;;;;;;;;;;;;;10.69;61.83;98776.19;4350660;33;20331;-82
2023/01/08 03:11:07;;;;;;;;;;;;;;;10.71;61.76;98773.47;4349411;33;19994;-82
2023/01/08 03:13:36;;;;;;;;;;;;;;;10.73;61.72;98768.97;4350684;33;20431;-82
2023/01/08 03:16:02;;;;;;;;;;;;;;;10.74;61.56;98758.34;4349510;33;19994;-82
2023/01/08 03:18:29;;;;;;;;;;;;;;;10.69;61.66;98757.75;4350587;33;20029;-82
2023/01/08 03:20:54;;;;;;;;;;;;;;;10.66;61.65;98754.44;4350623;33;19974;-82
2023/01/08 03:23:19;;;;;;;;;;;;;;;10.70;61.52;98762.09;4349277;33;20023;-81
2023/01/08 03:25:45;;;;;;;;;;;;;;;10.72;61.31;98757.59;4349366;33;20005;-82
2023/01/08 03:28:12;;;;;;;;;;;;;;;10.65;61.39;98761.50;4350412;33;19985;-82
2023/01/08 03:30:38;;;;;;;;;;;;;;;10.45;nan;98761.72;4349430;33;20017;-82
2023/01/08 03:33:03;;;;;;;;;;;;;;;10.59;61.66;98761.84;4336958;33;19983;-81
2023/01/08 03:35:29;;;;;;;;;;;;;;;10.62;61.58;98754.62;4349295;33;19991;-82
2023/01/08 03:37:59;;;;;;;;;;;;;;;10.65;61.50;98756.22;4349049;33;20218;-81
2023/01/08 03:40:26;;;;;;;;;;;;;;;10.44;62.15;98758.25;4349277;33;19970;-81
2023/01/08 03:42:51;;;;;;;;;;;;;;;10.57;61.76;98751.37;4350477;33;20350;-81
2023/01/08 03:45:16;;;;;;;;;;;;;;;10.64;61.58;98751.87;4349229;33;19987;-81
2023/01/08 03:47:42;;;;;;;;;;;;;;;10.67;61.54;98745.63;4349234;33;19963;-81
2023/01/08 03:50:08;;;;;;;;;;;;;;;10.59;61.62;98738.97;4350236;33;20379;-81
2023/01/08 03:52:34;;;;;;;;;;;;;;;10.65;61.35;98732.50;4350298;33;19984;-81
2023/01/08 03:54:59;;;;;;;;;;;;;;;10.64;61.34;98730.81;4350335;33;19993;-81
2023/01/08 03:57:24;;;;;;;;;;;;;;;10.65;61.33;98734.31;4349011;33;20272;-81
2023/01/08 03:59:49;;;;;;;;;;;;;;;10.63;61.39;98732.59;4349123;33;20026;-81
2023/01/08 04:02:15;;;;;;;;;;;;;;;10.69;61.41;98731.41;4350206;33;20317;-81
2023/01/08 04:04:40;;;;;;;;;;;;;;;10.68;61.35;98728.84;4348969;33;20009;-80
2023/01/08 04:07:06;;;;;;;;;;;;;;;10.70;61.37;98735.75;4350276;33;19975;-80
2023/01/08 04:09:31;;;;;;;;;;;;;;;10.68;61.40;98734.13;4350259;33;19980;-81
2023/01/08 04:11:56;;;;;;;;;;;;;;;10.71;61.39;98740.06;4350123;33;19983;-81
2023/01/08 04:14:22;;;;;;;;;;;;;;;10.74;61.39;98745.19;4349046;33;20061;-81
2023/01/08 04:16:47;;;;;;;;;;;;;;;10.77;61.40;98731.81;4349354;33;20085;-81
2023/01/08 04:19:12;;;;;;;;;;;;;;;10.81;61.26;98725.44;4350117;33;20240;-80
2023/01/08 04:21:38;;;;;;;;;;;;;;;10.84;61.03;98732.34;4336591;33;20039;-81
2023/01/08 04:24:03;;;;;;;;;;;;;;;10.85;60.91;98730.53;4350099;33;19997;-81
2023/01/08 04:26:28;;;;;;;;;;;;;;;10.83;60.95;98722.72;4350048;33;19985;-81
2023/01/08 04:28:54;;;;;;;;;;;;;;;10.81;60.97;98725.44;4350062;33;20304;-80
2023/01/08 04:31:19;;;;;;;;;;;;;;;10.79;60.95;98735.22;4336583;33;19994;-81
2023/01/08 04:33:44;;;;;;;;;;;;;;;10.80;61.05;98725.53;4350139;33;19983;-81
2023/01/08 04:36:09;;;;;;;;;;;;;;;10.80;61.03;98729.03;4349999;33;20005;-80
2023/01/08 04:38:35;;;;;;;;;;;;;;;10.81;61.07;98730.72;4350119;33;19975;-81
2023/01/08 04:41:00;;;;;;;;;;;;;;;10.83;61.01;98728.00;4349778;33;20236;-81
2023/01/08 04:43:26;;;;;;;;;;;;;;;10.81;60.85;98725.44;4349985;33;19998;-81
2023/01/08 04:45:51;;;;;;;;;;;;;;;10.79;60.94;98729.94;4348885;33;19975;-81
2023/01/08 04:48:16;;;;;;;;;;;;;;;10.80;60.85;98736.09;4350032;33;19990;-81
2023/01/08 04:50:42;;;;;;;;;;;;;;;10.77;60.83;98737.09;4349998;33;20011;-80
2023/01/08 04:53:07;;;;;;;;;;;;;;;10.77;60.89;98742.34;4349951;33;20311;-80
2023/01/08 04:55:32;;;;;;;;;;;;;;;10.77;60.89;98737.09;4349831;33;19995;-81
2023/01/08 04:57:58;;;;;;;;;;;;;;;10.78;60.99;98738.81;4349975;33;20283;-81
2023/01/08 05:00:23;;;;;;;;;;;;;;;10.70;60.99;98733.13;4348637;33;20035;-81
2023/01/08 05:02:48;;;;;;;;;;;;;;;10.71;61.05;98732.16;4336345;33;19998;-81
2023/01/08 05:05:14;;;;;;;;;;;;;;;10.72;61.05;98733.00;4349673;33;19975;-81
2023/01/08 05:07:39;;;;;;;;;;;;;;;10.61;61.34;98725.72;4349862;33;19968;-81
2023/01/08 05:10:05;;;;;;;;;;;;;;;10.64;61.35;98736.06;4349770;33;19967;-81
2023/01/08 05:12:30;;;;;;;;;;;;;;;10.63;61.33;98722.06;4349819;33;19983;-80
2023/01/08 05:14:55;;;;;;;;;;;;;;;10.67;61.38;98727.16;4349776;33;19982;-81
2023/01/08 05:17:20;;;;;;;;;;;;;;;10.66;61.43;98725.44;4349675;33;19967;-81
2023/01/08 05:19:45;;;;;;;;;;;;;;;10.69;61.34;98720.03;4349755;33;20240;-80
2023/01/08 05:22:11;;;;;;;;;;;;;;;10.71;61.20;98710.25;4349750;33;19986;-80
2023/01/08 05:24:36;;;;;;;;;;;;;;;10.68;61.28;98715.69;4349331;33;20015;-81
2023/01/08 05:27:01;;;;;;;;;;;;;;;10.67;61.39;98714.00;4349613;33;19982;-80
2023/01/08 05:29:26;;;;;;;;;;;;;;;10.69;61.33;98720.87;4348471;33;20226;-80
2023/01/08 05:31:52;;;;;;;;;;;;;;;10.71;61.15;98716.34;4349743;33;19979;-81
2023/01/08 05:34:17;;;;;;;;;;;;;;;10.67;61.31;98714.00;4349598;33;20009;-81
2023/01/08 05:36:42;;;;;;;;;;;;;;;10.69;61.13;98715.59;4348261;33;20001;-80
2023/01/08 05:39:08;;;;;;;;;;;;;;;10.65;61.21;98711.44;4349572;33;20010;-80
2023/01/08 05:41:33;;;;;;;;;;;;;;;10.66;61.17;98702.59;4349557;33;19983;-81
2023/01/08 05:43:59;;;;;;;;;;;;;;;10.67;61.07;98706.09;4349471;33;20018;-81
2023/01/08 05:46:24;;;;;;;;;;;;;;;10.67;61.09;98708.72;4335843;33;20237;-80
2023/01/08 05:48:49;;;;;;;;;;;;;;;10.65;61.32;98713.22;4349480;33;20035;-80
2023/01/08 05:51:14;;;;;;;;;;;;;;;10.70;61.13;98701.50;4349551;33;19994;-81
2023/01/08 05:53:40;;;;;;;;;;;;;;;10.67;61.21;98696.41;4349357;33;20347;-80
2023/01/08 05:56:06;;;;;;;;;;;;;;;10.70;61.14;98698.88;4349396;33;19971;-81
2023/01/08 05:58:32;;;;;;;;;;;;;;;10.70;61.12;98698.00;4349353;33;20330;-81
2023/01/08 06:01:04;;;;;;;;;;;;;;;10.71;61.11;98692.66;4348069;33;19990;-80
2023/01/08 06:03:29;;;;;;;;;;;;;;;10.74;60.97;98689.84;4348077;33;19985;-80
2023/01/08 06:05:58;;;;;;;;;;;;;;;10.71;61.07;98683.91;4349171;33;19995;-81
2023/01/08 06:08:23;;;;;;;;;;;;;;;10.69;61.06;98685.78;4335756;33;20002;-81
2023/01/08 06:10:49;;;;;;;;;;;;;;;10.71;60.85;98683.91;4349132;33;19978;-81
2023/01/08 06:13:14;;;;;;;;;;;;;;;10.69;60.93;98680.50;4349104;33;20013;-80
2023/01/08 06:15:39;;;;;;;;;;;;;;;10.66;60.86;98678.03;4349110;33;19971;-81
2023/01/08 06:18:05;;;;;;;;;;;;;;;10.65;60.90;98684.25;4348898;33;20312;-80
2023/01/08 06:20:30;;;;;;;;;;;;;;;10.62;60.86;98688.75;4348996;33;19986;-80
2023/01/08 06:22:55;;;;;;;;;;;;;;;10.60;60.87;98684.50;4348885;33;19979;-80
2023/01/08 06:25:20;;;;;;;;;;;;;;;10.59;61.09;98680.19;4348971;33;19975;-81
2023/01/08 06:27:49;;;;;;;;;;;;;;;10.63;60.83;98682.53;4348838;33;19975;-81
2023/01/08 06:30:15;;;;;;;;;;;;;;;10.63;60.82;98682.53;4348842;33;20038;-80
2023/01/08 06:32:40;;;;;;;;;;;;;;;10.62;60.83;98682.63;4347691;33;20030;-81
2023/01/08 06:35:05;;;;;;;;;;;;;;;10.63;60.76;98673.81;4348802;33;20314;-81
2023/01/08 06:37:31;;;;;;;;;;;;;;;10.58;60.95;98678.47;4347388;33;20256;-81
2023/01/08 06:39:56;;;;;;;;;;;;;;;10.59;60.79;98667.84;4349734;32;19993;-83
2023/01/08 06:42:21;;;;;;;;;;;;;;;10.57;60.87;98672.34;4349700;33;20006;-82
2023/01/08 06:44:46;;;;;;;;;;;;;;;10.53;61.05;98684.00;4350743;33;20018;-83
2023/01/08 06:47:12;;;;;;;;;;;;;;;10.47;61.08;98675.59;4350688;33;19984;-82
2023/01/08 06:49:37;;;;;;;;;;;;;;;10.51;61.16;98679.78;4337184;33;20034;-81
2023/01/08 06:52:02;;;;;;;;;;;;;;;10.54;61.19;98685.69;4350770;33;20022;-81
2023/01/08 06:54:27;;;;;;;;;;;;;;;10.56;61.17;98672.44;4350680;33;20010;-81
2023/01/08 06:56:52;;;;;;;;;;;;;;;10.58;61.15;98684.56;4350623;33;19975;-81
2023/01/08 06:59:18;;;;;;;;;;;;;;;10.61;61.00;98671.25;4349594;33;20039;-82
2023/01/08 07:01:43;;;;;;;;;;;;;;;10.66;60.71;98684.16;4350667;33;19975;-82
2023/01/08 07:04:08;;;;;;;;;;;;;;;10.61;60.75;98681.78;4350552;33;19979;-82
2023/01/08 07:06:33;;;;;;;;;;;;;;;10.61;60.81;98667.78;4349411;33;20023;-81
2023/01/08 07:08:59;;;;;;;;;;;;;;;10.63;60.71;98663.25;4350651;33;19971;-81
2023/01/08 07:11:24;;;;;;;;;;;;;;;10.66;60.72;98672.75;4350699;33;19993;-81
2023/01/08 07:13:49;;;;;;;;;;;;;;;10.69;60.57;98672.59;4337028;33;20339;-80
2023/01/08 07:16:15;;;;;;;;;;;;;;;10.66;60.72;98673.59;4350534;33;20255;-81
2023/01/08 07:18:41;;;;;;;;;;;;;;;10.70;60.56;98685.69;4349486;33;19990;-80
2023/01/08 07:21:06;;;;;;;;;;;;;;;10.70;60.48;98679.56;4348775;33;19994;-80
2023/01/08 07:23:32;;;;;;;;;;;;;;;10.71;60.68;98676.00;4348675;33;19975;-79
2023/01/08 07:26:04;;;;;;;;;;;;;;;10.71;60.69;98676.00;4344843;33;20011;-79
2023/01/08 07:28:29;;;;;;;;;;;;;;;10.73;60.71;98674.13;4336890;33;20017;-79
2023/01/08 07:30:55;;;;;;;;;;;;;;;10.77;60.49;98671.22;4347786;33;19998;-78
2023/01/08 07:33:20;;;;;;;;;;;;;;;10.78;60.42;98669.44;4350432;33;19970;-80
2023/01/08 07:35:54;;;;;;;;;;;;;;;10.76;60.36;98672.16;4349266;33;19979;-80
2023/01/08 07:38:20;;;;;;;;;;;;;;;10.81;60.15;98677.16;4349199;33;20001;-80
2023/01/08 07:40:45;;;;;;;;;;;;;;;10.78;60.22;98665.03;4336922;33;19998;-80
2023/01/08 07:43:13;;;;;;;;;;;;;;;10.79;60.20;98666.69;4350343;33;20325;-80
2023/01/08 07:45:39;;;;;;;;;;;;;;;10.78;60.11;98672.94;4350284;33;20042;-80
2023/01/08 07:48:04;;;;;;;;;;;;;;;10.79;60.24;98671.97;4350372;33;19987;-80
2023/01/08 07:50:29;;;;;;;;;;;;;;;10.79;60.20;98668.50;4348468;33;19971;-80
2023/01/08 07:52:58;;;;;;;;;;;;;;;10.77;60.29;98663.31;4350076;33;19980;-80
2023/01/08 07:55:23;;;;;;;;;;;;;;;10.81;60.12;98667.47;4349273;33;20042;-80
2023/01/08 07:57:48;;;;;;;;;;;;;;;10.76;60.09;98661.63;4350041;33;20031;-80
2023/01/08 08:00:14;;;;;;;;;;;;;;;10.77;60.04;98662.47;4349114;33;19993;-79
2023/01/08 08:02:39;;;;;;;;;;;;;;;10.74;60.15;98660.00;4350334;33;19967;-80
2023/01/08 08:05:04;;;;;;;;;;;;;;;10.75;60.17;98662.56;4336574;33;19987;-80
2023/01/08 08:07:30;;;;;;;;;;;;;;;10.76;60.12;98658.16;4349133;33;20313;-80
2023/01/08 08:09:55;;;;;;;;;;;;;;;10.75;60.12;98657.28;4349097;33;19974;-80
2023/01/08 08:12:20;;;;;;;;;;;;;;;10.80;59.73;98657.88;4336655;33;19978;-80
2023/01/08 08:14:46;;;;;;;;;;;;;;;10.82;59.69;98656.00;4350123;33;19974;-80
2023/01/08 08:17:11;;;;;;;;;;;;;;;10.76;59.67;98648.44;4350192;33;20255;-80
2023/01/08 08:19:36;;;;;;;;;;;;;;;10.81;59.38;98645.53;4344310;33;19983;-80
2023/01/08 08:22:02;;;;;;;;;;;;;;;10.77;59.48;98642.22;4335316;33;19973;-80
2023/01/08 08:24:27;;;;;;;;;;;;;;;10.69;59.74;98638.34;4335336;33;20305;-79
2023/01/08 08:26:53;;;;;;;;;;;;;;;10.70;59.77;98642.66;4335475;33;20250;-81
2023/01/08 08:29:18;;;;;;;;;;;;;;;10.66;59.83;98636.72;4335407;33;19994;-80
2023/01/08 08:31:43;;;;;;;;;;;;;;;10.65;59.75;98631.56;4335307;33;20051;-80
2023/01/08 08:34:09;;;;;;;;;;;;;;;10.65;59.76;98627.13;4334166;33;19987;-80
2023/01/08 08:36:34;;;;;;;;;;;;;;;10.65;59.72;98623.66;4335227;33;19990;-81
2023/01/08 08:39:00;;;;;;;;;;;;;;;10.68;59.61;98626.09;4335372;33;19986;-79
2023/01/08 08:41:26;;;;;;;;;;;;;;;10.61;59.71;98623.81;4334104;33;20078;-80
2023/01/08 08:43:51;;;;;;;;;;;;;;;10.67;59.57;98614.72;4335145;33;19972;-80
2023/01/08 08:46:16;;;;;;;;;;;;;;;10.71;59.61;98616.25;4335392;33;20002;-80
2023/01/08 08:48:43;;;;;;;;;;;;;;;10.75;59.53;98620.41;4335217;33;20245;-80
2023/01/08 08:51:08;;;;;;;;;;;;;;;10.81;59.31;98619.19;4335198;33;20057;-80
2023/01/08 08:53:33;;;;;;;;;;;;;;;10.74;59.36;98615.22;4335176;33;19975;-80
2023/01/08 08:55:59;;;;;;;;;;;;;;;10.74;59.34;98617.84;4335115;33;20332;-79
2023/01/08 08:58:24;;;;;;;;;;;;;;;10.06;60.64;98628.69;4335245;33;19979;-80
2023/01/08 09:00:49;;;;;;;;;;;;;;;10.61;59.70;98609.81;4335121;33;19984;-80
2023/01/08 09:03:15;;;;;;;;;;;;;;;10.70;59.50;98613.69;4333441;33;20049;-80
2023/01/08 09:05:41;;;;;;;;;;;;;;;10.77;59.40;98623.78;4333976;33;20009;-81
2023/01/08 09:08:07;;;;;;;;;;;;;;;10.81;59.08;98616.56;4335142;33;20306;-80
2023/01/08 09:10:32;;;;;;;;;;;;;;;10.90;58.75;98608.13;4340522;33;19990;-80
2023/01/08 09:12:57;;;;;;;;;;;;;;;10.89;58.77;98609.03;4336268;33;20405;-80
2023/01/08 09:15:22;;;;;;;;;;;;;;;10.91;58.69;98611.59;4349723;33;19995;-81
2023/01/08 09:17:54;;;;;;;;;;;;;;;10.91;58.81;98615.06;4348586;33;20338;-81
2023/01/08 09:20:20;;;;;;;;;;;;;;;10.99;58.59;98615.50;4349672;33;19986;-80
2023/01/08 09:22:45;;;;;;;;;;;;;;;11.06;58.54;98605.41;4349657;33;19998;-81
2023/01/08 09:25:11;;;;;;;;;;;;;;;11.09;58.18;98601.78;4349775;33;19991;-81
2023/01/08 09:27:36;;;;;;;;;;;;;;;11.12;57.81;98605.03;4349592;33;20312;-81
2023/01/08 09:30:01;;;;;;;;;;;;;;;11.12;57.86;98601.56;4348245;33;19963;-81
2023/01/08 09:32:26;;;;;;;;;;;;;;;11.17;57.67;98603.00;4325527;33;19979;-81
2023/01/08 09:34:52;;;;;;;;;;;;;;;11.17;57.45;98599.50;4334650;33;19984;-79
2023/01/08 09:37:17;;;;;;;;;;;;;;;11.13;57.61;98590.94;4334637;33;19990;-80
2023/01/08 09:39:42;;;;;;;;;;;;;;;11.17;57.66;98600.34;4333685;33;19991;-81
2023/01/08 09:42:09;;;;;;;;;;;;;;;11.21;57.28;98587.84;4334749;33;20003;-81
2023/01/08 09:44:36;;;;;;;;;;;;;;;11.22;57.55;98581.59;4333376;33;20299;-81
2023/01/08 09:47:01;;;;;;;;;;;;;;;11.26;57.48;98583.16;4333662;33;20260;-81
2023/01/08 09:49:32;;;;;;;;;;;;;;;11.34;57.14;98564.22;4333617;33;19985;-81
2023/01/08 09:51:57;;;;;;;;;;;;;;;11.39;57.00;98559.50;4333447;33;19991;-81
2023/01/08 09:54:22;;;;;;;;;;;;;;;11.46;56.87;98558.19;4334592;33;20362;-81
2023/01/08 09:56:48;;;;;;;;;;;;;;;11.50;56.31;98559.69;4334512;33;20356;-81
2023/01/08 09:59:15;;;;;;;;;;;;;;;11.48;56.25;98552.81;4333453;33;20304;-81
2023/01/08 10:01:40;;;;;;;;;;;;;;;11.48;56.52;98552.81;4333424;33;19990;-81
2023/01/08 10:04:09;;;;;;;;;;;;;;;11.54;56.46;98547.16;4334500;33;20326;-81
2023/01/08 10:06:34;;;;;;;;;;;;;;;11.59;56.27;98540.66;4333395;33;20143;-81
2023/01/08 10:08:59;;;;;;;;;;;;;;;11.60;56.60;98538.84;4334357;33;20014;-81
2023/01/08 10:11:25;;;;;;;;;;;;;;;11.77;56.10;98533.34;4333116;33;20040;-81
2023/01/08 10:13:52;;;;;;;;;;;;;;;11.87;55.34;98523.06;4333489;33;19979;-81
2023/01/08 10:16:22;;;;;;;;;;;;;;;11.81;55.33;98518.16;4335091;33;19998;-81
2023/01/08 10:18:47;;;;;;;;;;;;;;;11.82;54.98;98509.31;4335005;33;20339;-81
2023/01/08 10:21:12;;;;;;;;;;;;;;;11.78;55.08;98508.66;4336342;33;19983;-81
2023/01/08 10:23:47;;;;;;;;;;;;;;;11.81;54.96;98513.72;4334937;33;20015;-81
2023/01/08 10:26:12;;;;;;;;;;;;;;;11.86;55.16;98512.59;4335041;33;20037;-81
2023/01/08 10:28:37;;;;;;;;;;;;;;;11.94;55.11;98507.72;4334908;33;20232;-81
2023/01/08 10:31:03;;;;;;;;;;;;;;;12.01;54.69;98511.62;4334745;33;20006;-81
2023/01/08 10:33:30;;;;;;;;;;;;;;;12.03;54.87;98495.69;4335032;33;19987;-81
2023/01/08 10:35:59;;;;;;;;;;;;;;;12.02;54.92;98500.13;4336145;33;19979;-81
2023/01/08 10:38:26;;;;;;;;;;;;;;;12.14;54.67;98496.69;4334834;33;20256;-81
2023/01/08 10:40:51;;;;;;;;;;;;;;;12.19;54.17;98502.53;4334995;33;19982;-80
2023/01/08 10:43:20;;;;;;;;;;;;;;;12.23;53.96;98483.81;4334818;33;20088;-81
2023/01/08 10:46:02;;;;;;;;;;;;;;;12.30;53.92;98482.47;4336086;33;20680;-81
2023/01/08 10:48:46;;;;;;;;;;;;;;;12.36;53.97;98468.84;4336118;33;20316;-81
2023/01/08 10:51:13;;;;;;;;;;;;;;;12.39;53.43;98473.94;4335239;33;20010;-81
2023/01/08 10:53:40;;;;;;;;;;;;;;;12.34;53.72;98470.75;4334952;33;20045;-81
2023/01/08 10:56:05;;;;;;;;;;;;;;;12.31;53.82;98460.41;4334717;33;19994;-81
2023/01/08 10:58:39;;;;;;;;;;;;;;;12.08;54.41;98461.94;4334772;33;19987;-81
2023/01/08 11:01:31;;;;;;;;;;;;;;;12.18;54.31;98465.66;4334827;33;20099;-81
2023/01/08 11:03:57;;;;;;;;;;;;;;;12.19;54.39;98459.44;4335377;33;20039;-81
2023/01/08 11:06:24;;;;;;;;;;;;;;;12.19;54.38;98464.72;4334918;33;20047;-82
2023/01/08 11:08:59;;;;;;;;;;;;;;;12.01;54.95;98458.81;4335056;33;20063;-81
2023/01/08 11:11:31;;;;;;;;;;;;;;;12.12;54.77;98463.41;4334994;33;19978;-81
2023/01/08 11:14:00;;;;;;;;;;;;;;;12.15;54.90;98450.03;4335110;33;20015;-81
2023/01/08 11:16:29;;;;;;;;;;;;;;;12.27;54.60;98438.63;4334920;33;19991;-82
2023/01/08 11:18:54;;;;;;;;;;;;;;;12.35;54.37;98435.47;4334865;33;19970;-81
2023/01/08 11:21:21;;;;;;;;;;;;;;;12.33;54.53;98442.66;4335844;33;20351;-81
2023/01/08 11:23:47;;;;;;;;;;;;;;;12.43;54.30;98422.59;4334989;33;19995;-81
2023/01/08 11:26:16;;;;;;;;;;;;;;;12.53;54.11;98418.34;4341792;33;19978;-81
2023/01/08 11:28:42;;;;;;;;;;;;;;;12.63;53.62;98412.44;4349600;33;20029;-81
2023/01/08 11:31:13;;;;;;;;;;;;;;;12.60;53.88;98402.94;4337143;33;19991;-81
2023/01/08 11:33:38;;;;;;;;;;;;;;;12.64;53.71;98404.41;4349775;33;20058;-81
2023/01/08 11:36:07;;;;;;;;;;;;;;;12.66;53.71;98397.22;4349625;33;20324;-81
2023/01/08 11:38:32;;;;;;;;;;;;;;;12.74;53.58;98386.97;4349515;33;20307;-81
2023/01/08 11:41:24;;;;;;;;;;;;;;;12.75;53.51;98396.59;4350662;33;19986;-81
2023/01/08 11:44:08;;;;;;;;;;;;;;;12.78;53.50;98390.22;4318948;33;20023;-81
2023/01/08 11:46:33;;;;;;;;;;;;;;;12.81;53.61;98386.56;4312314;33;20043;-81
2023/01/08 11:49:16;;;;;;;;;;;;;;;12.85;53.81;98388.84;4297871;33;20075;-82
2023/01/08 11:51:42;;;;;;;;;;;;;;;12.98;53.35;98373.81;4304319;33;20003;-81
2023/01/08 11:54:25;;;;;;;;;;;;;;;13.00;53.43;98373.72;4304144;33;20026;-81
2023/01/08 11:56:51;;;;;;;;;;;;;;;13.05;52.84;98374.22;4304279;33;20780;-81
2023/01/08 11:59:25;;;;;;;;;;;;;;;13.08;52.94;98371.38;4303371;33;20000;-80
2023/01/08 12:01:51;;;;;;;;;;;;;;;13.12;52.58;98367.53;4308894;33;20006;-81
2023/01/08 12:04:34;;;;;;;;;;;;;;;13.15;52.46;98364.69;4310023;33;19999;-81
2023/01/08 12:07:03;;;;;;;;;;;;;;;13.17;52.62;98367.19;4309999;33;19992;-81
2023/01/08 12:09:28;;;;;;;;;;;;;;;13.14;52.58;98357.69;4310472;33;19960;-85
2023/01/08 12:11:56;;;;;;;;;;;;;;;13.16;52.45;98363.72;4308652;33;20373;-81
2023/01/08 12:14:30;;;;;;;;;;;;;;;13.12;52.30;98356.13;4312510;33;20015;-80
2023/01/08 12:17:14;;;;;;;;;;;;;;;13.13;52.61;98358.66;4303917;33;20352;-79
2023/01/08 12:20:06;;;;;;;;;;;;;;;13.09;52.63;98361.63;4306637;33;19983;-82
2023/01/08 12:22:41;;;;;;;;;;;;;;;13.10;52.93;98352.75;4324895;33;19984;-81
2023/01/08 12:25:39;;;;;;;;;;;;;;;13.03;52.81;98357.63;4335199;33;20261;-82
2023/01/08 12:28:07;;;;;;;;;;;;;;;13.11;52.45;98363.19;4303852;33;20843;-82
2023/01/08 12:30:41;;;;;;;;;;;;;;;13.13;52.37;98350.75;4303858;33;19984;-82
2023/01/08 12:33:07;;;;;;;;;;;;;;;12.93;52.75;98354.78;4304004;33;19987;-82
2023/01/08 12:35:36;;;;;;;;;;;;;;;13.02;52.41;98358.59;4295776;33;20298;-81
2023/01/08 12:38:01;;;;;;;;;;;;;;;13.02;52.73;98349.78;4297846;33;21590;-81
2023/01/08 12:40:33;;;;;;;;;;;;;;;13.01;52.92;98353.41;4304122;33;20004;-84
2023/01/08 12:42:59;;;;;;;;;;;;;;;12.99;52.75;98351.69;4291977;33;20019;-84
2023/01/08 12:45:31;;;;;;;;;;;;;;;12.96;52.71;98351.94;4291944;33;19992;-84
2023/01/08 12:48:06;;;;;;;;;;;;;;;12.91;52.79;98340.84;4290603;33;19984;-84